sensor_id;sensor_type;location;lat;lon;timestamp;pressure;altitude;pressure_sealevel;temperature
13497;BMP180;6820;49.374;8.452;2022-11-02T00:02:16;101150.63;;;17.93
13497;BMP180;6820;49.374;8.452;2022-11-02T00:06:18;101151.56;;;17.95
13497;BMP180;6820;49.374;8.452;2022-11-02T00:10:21;101154.13;;;17.95
13497;BMP180;6820;49.374;8.452;2022-11-02T00:14:23;101148.06;;;17.93
13497;BMP180;6820;49.374;8.452;2022-11-02T00:18:25;101159.13;;;17.92
13497;BMP180;6820;49.374;8.452;2022-11-02T00:22:26;101155.69;;;17.92
13497;BMP180;6820;49.374;8.452;2022-11-02T00:26:28;101154.75;;;17.90
13497;BMP180;6820;49.374;8.452;2022-11-02T00:30:29;101145.22;;;17.87
13497;BMP180;6820;49.374;8.452;2022-11-02T00:34:31;101151.19;;;17.86
13497;BMP180;6820;49.374;8.452;2022-11-02T00:38:33;101146.94;;;17.87
13497;BMP180;6820;49.374;8.452;2022-11-02T00:42:35;101138.38;;;17.86
13497;BMP180;6820;49.374;8.452;2022-11-02T00:46:36;101145.94;;;17.83
13497;BMP180;6820;49.374;8.452;2022-11-02T00:50:38;101136.31;;;17.79
13497;BMP180;6820;49.374;8.452;2022-11-02T00:54:40;101142.19;;;17.77
13497;BMP180;6820;49.374;8.452;2022-11-02T00:58:42;101138.84;;;17.78
13497;BMP180;6820;49.374;8.452;2022-11-02T01:02:45;101142.16;;;17.75
13497;BMP180;6820;49.374;8.452;2022-11-02T01:06:47;101138.50;;;17.70
13497;BMP180;6820;49.374;8.452;2022-11-02T01:10:49;101144.41;;;17.69
13497;BMP180;6820;49.374;8.452;2022-11-02T01:14:51;101141.72;;;17.67
13497;BMP180;6820;49.374;8.452;2022-11-02T01:18:53;101140.84;;;17.66
13497;BMP180;6820;49.374;8.452;2022-11-02T01:22:56;101146.06;;;17.68
13497;BMP180;6820;49.374;8.452;2022-11-02T01:26:58;101136.72;;;17.69
13497;BMP180;6820;49.374;8.452;2022-11-02T01:31:00;101132.41;;;17.68
13497;BMP180;6820;49.374;8.452;2022-11-02T01:35:02;101128.97;;;17.68
13497;BMP180;6820;49.374;8.452;2022-11-02T01:39:04;101126.41;;;17.68
13497;BMP180;6820;49.374;8.452;2022-11-02T01:43:27;101126.63;;;17.72
13497;BMP180;6820;49.374;8.452;2022-11-02T01:47:35;101124.81;;;17.70
13497;BMP180;6820;49.374;8.452;2022-11-02T01:51:42;101128.38;;;17.73
13497;BMP180;6820;49.374;8.452;2022-11-02T01:55:44;101125.84;;;17.75
13497;BMP180;6820;49.374;8.452;2022-11-02T01:59:53;101129.38;;;17.77
13497;BMP180;6820;49.374;8.452;2022-11-02T02:03:56;101126.03;;;17.78
13497;BMP180;6820;49.374;8.452;2022-11-02T02:08:01;101118.50;;;17.82
13497;BMP180;6820;49.374;8.452;2022-11-02T02:12:05;101116.03;;;17.84
13497;BMP180;6820;49.374;8.452;2022-11-02T02:16:22;101121.19;;;17.85
13497;BMP180;6820;49.374;8.452;2022-11-02T02:29:02;101107.31;;;17.80
13497;BMP180;6820;49.374;8.452;2022-11-02T02:33:15;101108.13;;;17.79
13497;BMP180;6820;49.374;8.452;2022-11-02T02:41:39;101114.06;;;17.78
13497;BMP180;6820;49.374;8.452;2022-11-02T02:45:44;101112.16;;;17.74
13497;BMP180;6820;49.374;8.452;2022-11-02T02:49:54;101111.38;;;17.75
13497;BMP180;6820;49.374;8.452;2022-11-02T02:54:01;101109.44;;;17.70
13497;BMP180;6820;49.374;8.452;2022-11-02T02:58:06;101105.66;;;17.62
13497;BMP180;6820;49.374;8.452;2022-11-02T03:02:19;101100.44;;;17.61
13497;BMP180;6820;49.374;8.452;2022-11-02T03:06:33;101095.25;;;17.59
13497;BMP180;6820;49.374;8.452;2022-11-02T03:10:48;101088.38;;;17.58
13497;BMP180;6820;49.374;8.452;2022-11-02T03:23:51;101085.75;;;17.57
13497;BMP180;6820;49.374;8.452;2022-11-02T03:32:35;101096.13;;;17.60
13497;BMP180;6820;49.374;8.452;2022-11-02T03:37:00;101107.03;;;17.74
13497;BMP180;6820;49.374;8.452;2022-11-02T03:41:05;101109.53;;;17.92
13497;BMP180;6820;49.374;8.452;2022-11-02T03:45:17;101112.72;;;18.05
13497;BMP180;6820;49.374;8.452;2022-11-02T03:49:22;101099.28;;;18.10
13497;BMP180;6820;49.374;8.452;2022-11-02T03:53:41;101101.03;;;18.11
13497;BMP180;6820;49.374;8.452;2022-11-02T03:57:46;101095.03;;;18.11
13497;BMP180;6820;49.374;8.452;2022-11-02T04:01:51;101095.84;;;18.10
13497;BMP180;6820;49.374;8.452;2022-11-02T04:05:55;101112.03;;;18.09
13497;BMP180;6820;49.374;8.452;2022-11-02T04:10:03;101122.41;;;18.12
13497;BMP180;6820;49.374;8.452;2022-11-02T04:14:05;101114.97;;;18.18
13497;BMP180;6820;49.374;8.452;2022-11-02T04:18:26;101138.16;;;18.19
13497;BMP180;6820;49.374;8.452;2022-11-02T04:22:46;101152.72;;;18.20
13497;BMP180;6820;49.374;8.452;2022-11-02T04:27:06;101153.75;;;18.24
13497;BMP180;6820;49.374;8.452;2022-11-02T04:31:08;101164.38;;;18.32
13497;BMP180;6820;49.374;8.452;2022-11-02T04:35:13;101168.16;;;18.40
13497;BMP180;6820;49.374;8.452;2022-11-02T04:39:17;101171.78;;;18.45
13497;BMP180;6820;49.374;8.452;2022-11-02T04:43:19;101165.91;;;18.48
13497;BMP180;6820;49.374;8.452;2022-11-02T04:47:21;101171.09;;;18.49
13497;BMP180;6820;49.374;8.452;2022-11-02T04:51:25;101169.28;;;18.47
13497;BMP180;6820;49.374;8.452;2022-11-02T04:55:28;101172.59;;;18.44
13497;BMP180;6820;49.374;8.452;2022-11-02T04:59:30;101174.28;;;18.44
13497;BMP180;6820;49.374;8.452;2022-11-02T05:03:32;101169.34;;;18.48
13497;BMP180;6820;49.374;8.452;2022-11-02T05:07:34;101174.69;;;18.53
13497;BMP180;6820;49.374;8.452;2022-11-02T05:11:36;101179.13;;;18.57
13497;BMP180;6820;49.374;8.452;2022-11-02T05:15:39;101184.34;;;18.58
13497;BMP180;6820;49.374;8.452;2022-11-02T05:19:42;101192.16;;;18.61
13497;BMP180;6820;49.374;8.452;2022-11-02T05:23:44;101188.09;;;18.66
13497;BMP180;6820;49.374;8.452;2022-11-02T05:27:47;101184.75;;;18.68
13497;BMP180;6820;49.374;8.452;2022-11-02T05:31:49;101186.91;;;18.58
13497;BMP180;6820;49.374;8.452;2022-11-02T05:35:51;101198.25;;;18.44
13497;BMP180;6820;49.374;8.452;2022-11-02T05:39:54;101200.09;;;18.28
13497;BMP180;6820;49.374;8.452;2022-11-02T05:43:57;101203.03;;;18.17
13497;BMP180;6820;49.374;8.452;2022-11-02T05:48:02;101208.56;;;18.07
13497;BMP180;6820;49.374;8.452;2022-11-02T05:52:06;101207.31;;;17.99
13497;BMP180;6820;49.374;8.452;2022-11-02T05:56:09;101203.56;;;17.91
13497;BMP180;6820;49.374;8.452;2022-11-02T06:00:11;101209.25;;;17.86
13497;BMP180;6820;49.374;8.452;2022-11-02T06:04:15;101212.50;;;17.82
13497;BMP180;6820;49.374;8.452;2022-11-02T06:08:16;101220.00;;;17.77
13497;BMP180;6820;49.374;8.452;2022-11-02T06:12:18;101223.25;;;17.73
13497;BMP180;6820;49.374;8.452;2022-11-02T06:16:19;101222.16;;;17.68
13497;BMP180;6820;49.374;8.452;2022-11-02T06:20:23;101230.66;;;17.68
13497;BMP180;6820;49.374;8.452;2022-11-02T06:24:25;101232.25;;;17.66
13497;BMP180;6820;49.374;8.452;2022-11-02T06:28:28;101243.63;;;17.70
13497;BMP180;6820;49.374;8.452;2022-11-02T06:32:30;101252.59;;;17.80
13497;BMP180;6820;49.374;8.452;2022-11-02T06:36:32;101252.94;;;17.87
13497;BMP180;6820;49.374;8.452;2022-11-02T06:40:33;101257.59;;;17.96
13497;BMP180;6820;49.374;8.452;2022-11-02T06:44:35;101256.22;;;18.02
13497;BMP180;6820;49.374;8.452;2022-11-02T06:48:36;101267.56;;;18.07
13497;BMP180;6820;49.374;8.452;2022-11-02T06:52:45;101276.16;;;18.07
13497;BMP180;6820;49.374;8.452;2022-11-02T06:56:47;101279.31;;;18.02
13497;BMP180;6820;49.374;8.452;2022-11-02T07:00:49;101286.63;;;17.95
13497;BMP180;6820;49.374;8.452;2022-11-02T07:04:51;101295.72;;;17.88
13497;BMP180;6820;49.374;8.452;2022-11-02T07:08:54;101305.84;;;17.85
13497;BMP180;6820;49.374;8.452;2022-11-02T07:12:57;101310.09;;;17.85
13497;BMP180;6820;49.374;8.452;2022-11-02T07:16:58;101315.31;;;17.86
13497;BMP180;6820;49.374;8.452;2022-11-02T07:21:00;101326.56;;;17.90
13497;BMP180;6820;49.374;8.452;2022-11-02T07:25:03;101319.91;;;17.93
13497;BMP180;6820;49.374;8.452;2022-11-02T07:29:04;101327.59;;;17.93
13497;BMP180;6820;49.374;8.452;2022-11-02T07:33:06;101337.78;;;17.92
13497;BMP180;6820;49.374;8.452;2022-11-02T07:37:08;101345.53;;;17.93
13497;BMP180;6820;49.374;8.452;2022-11-02T07:41:09;101345.63;;;17.95
13497;BMP180;6820;49.374;8.452;2022-11-02T07:45:11;101353.69;;;18.02
13497;BMP180;6820;49.374;8.452;2022-11-02T07:49:13;101356.47;;;18.06
13497;BMP180;6820;49.374;8.452;2022-11-02T07:53:21;101363.44;;;18.09
13497;BMP180;6820;49.374;8.452;2022-11-02T07:57:23;101366.13;;;18.12
13497;BMP180;6820;49.374;8.452;2022-11-02T08:01:24;101360.22;;;18.13
13497;BMP180;6820;49.374;8.452;2022-11-02T08:05:27;101369.75;;;18.15
13497;BMP180;6820;49.374;8.452;2022-11-02T08:09:29;101353.75;;;18.21
13497;BMP180;6820;49.374;8.452;2022-11-02T08:13:31;101378.88;;;18.28
13497;BMP180;6820;49.374;8.452;2022-11-02T08:17:33;101379.22;;;18.35
13497;BMP180;6820;49.374;8.452;2022-11-02T08:21:35;101383.66;;;18.39
13497;BMP180;6820;49.374;8.452;2022-11-02T08:25:37;101385.63;;;18.44
13497;BMP180;6820;49.374;8.452;2022-11-02T08:29:39;101385.03;;;18.50
13497;BMP180;6820;49.374;8.452;2022-11-02T08:33:44;101381.19;;;18.59
13497;BMP180;6820;49.374;8.452;2022-11-02T08:37:55;101381.47;;;18.65
13497;BMP180;6820;49.374;8.452;2022-11-02T08:41:57;101383.38;;;18.69
13497;BMP180;6820;49.374;8.452;2022-11-02T08:46:00;101382.69;;;18.73
13497;BMP180;6820;49.374;8.452;2022-11-02T08:50:15;101397.56;;;18.80
13497;BMP180;6820;49.374;8.452;2022-11-02T08:54:17;101394.31;;;18.84
13497;BMP180;6820;49.374;8.452;2022-11-02T08:58:19;101401.34;;;18.88
13497;BMP180;6820;49.374;8.452;2022-11-02T09:02:20;101409.41;;;18.95
13497;BMP180;6820;49.374;8.452;2022-11-02T09:06:22;101419.34;;;19.06
13497;BMP180;6820;49.374;8.452;2022-11-02T09:10:25;101405.31;;;19.19
13497;BMP180;6820;49.374;8.452;2022-11-02T09:14:27;101396.56;;;19.34
13497;BMP180;6820;49.374;8.452;2022-11-02T09:18:29;101396.25;;;19.47
13497;BMP180;6820;49.374;8.452;2022-11-02T09:22:30;101405.53;;;19.63
13497;BMP180;6820;49.374;8.452;2022-11-02T09:26:32;101403.50;;;19.75
13497;BMP180;6820;49.374;8.452;2022-11-02T09:30:33;101396.84;;;19.80
13497;BMP180;6820;49.374;8.452;2022-11-02T09:34:35;101401.72;;;19.94
13497;BMP180;6820;49.374;8.452;2022-11-02T09:38:37;101398.19;;;20.13
13497;BMP180;6820;49.374;8.452;2022-11-02T09:42:45;101410.63;;;20.24
13497;BMP180;6820;49.374;8.452;2022-11-02T09:46:51;101397.34;;;20.35
13497;BMP180;6820;49.374;8.452;2022-11-02T09:51:25;101406.22;;;20.43
13497;BMP180;6820;49.374;8.452;2022-11-02T09:55:34;101397.84;;;20.48
13497;BMP180;6820;49.374;8.452;2022-11-02T09:59:36;101398.41;;;20.62
13497;BMP180;6820;49.374;8.452;2022-11-02T10:03:56;101407.88;;;20.63
13497;BMP180;6820;49.374;8.452;2022-11-02T10:13:05;101398.81;;;20.50
13497;BMP180;6820;49.374;8.452;2022-11-02T10:17:16;101397.97;;;20.51
13497;BMP180;6820;49.374;8.452;2022-11-02T10:21:22;101400.88;;;20.59
13497;BMP180;6820;49.374;8.452;2022-11-02T10:25:25;101396.13;;;20.69
13497;BMP180;6820;49.374;8.452;2022-11-02T10:33:55;101406.84;;;21.04
13497;BMP180;6820;49.374;8.452;2022-11-02T10:38:20;101400.06;;;21.31
13497;BMP180;6820;49.374;8.452;2022-11-02T10:42:47;101397.88;;;21.41
13497;BMP180;6820;49.374;8.452;2022-11-02T10:47:15;101382.28;;;21.63
13497;BMP180;6820;49.374;8.452;2022-11-02T10:51:18;101376.44;;;21.68
13497;BMP180;6820;49.374;8.452;2022-11-02T10:59:31;101379.13;;;21.71
13497;BMP180;6820;49.374;8.452;2022-11-02T11:03:33;101370.94;;;21.84
13497;BMP180;6820;49.374;8.452;2022-11-02T11:07:35;101371.28;;;21.94
13497;BMP180;6820;49.374;8.452;2022-11-02T11:11:37;101364.88;;;22.09
13497;BMP180;6820;49.374;8.452;2022-11-02T11:15:39;101369.97;;;22.34
13497;BMP180;6820;49.374;8.452;2022-11-02T11:19:47;101362.13;;;22.60
13497;BMP180;6820;49.374;8.452;2022-11-02T11:24:10;101367.59;;;22.70
13497;BMP180;6820;49.374;8.452;2022-11-02T11:28:40;101369.38;;;22.71
13497;BMP180;6820;49.374;8.452;2022-11-02T11:32:53;101355.06;;;22.55
13497;BMP180;6820;49.374;8.452;2022-11-02T11:37:09;101355.00;;;22.52
13497;BMP180;6820;49.374;8.452;2022-11-02T11:41:11;101332.72;;;22.55
13497;BMP180;6820;49.374;8.452;2022-11-02T11:45:20;101336.25;;;22.59
13497;BMP180;6820;49.374;8.452;2022-11-02T11:49:32;101334.41;;;22.55
13497;BMP180;6820;49.374;8.452;2022-11-02T11:54:05;101334.41;;;22.55
13497;BMP180;6820;49.374;8.452;2022-11-02T11:58:34;101339.66;;;22.58
13497;BMP180;6820;49.374;8.452;2022-11-02T12:02:35;101346.81;;;22.66
13497;BMP180;6820;49.374;8.452;2022-11-02T12:06:55;101333.19;;;22.71
13497;BMP180;6820;49.374;8.452;2022-11-02T12:15:41;101321.22;;;22.75
13497;BMP180;6820;49.374;8.452;2022-11-02T12:34:00;101324.84;;;22.81
13497;BMP180;6820;49.374;8.452;2022-11-02T12:42:42;101312.28;;;22.93
13497;BMP180;6820;49.374;8.452;2022-11-02T12:51:14;101294.75;;;23.15
13497;BMP180;6820;49.374;8.452;2022-11-02T12:55:23;101288.56;;;23.09
13497;BMP180;6820;49.374;8.452;2022-11-02T12:59:29;101310.56;;;22.93
13497;BMP180;6820;49.374;8.452;2022-11-02T13:03:53;101291.88;;;23.03
13497;BMP180;6820;49.374;8.452;2022-11-02T13:08:15;101294.72;;;23.14
13497;BMP180;6820;49.374;8.452;2022-11-02T13:12:20;101277.63;;;23.20
13497;BMP180;6820;49.374;8.452;2022-11-02T13:16:32;101276.09;;;23.28
13497;BMP180;6820;49.374;8.452;2022-11-02T13:20:42;101267.63;;;23.35
13497;BMP180;6820;49.374;8.452;2022-11-02T13:24:51;101271.41;;;23.47
13497;BMP180;6820;49.374;8.452;2022-11-02T13:29:11;101276.97;;;23.62
13497;BMP180;6820;49.374;8.452;2022-11-02T13:33:20;101268.41;;;23.64
13497;BMP180;6820;49.374;8.452;2022-11-02T13:37:37;101275.22;;;23.61
13497;BMP180;6820;49.374;8.452;2022-11-02T13:50:22;101270.53;;;23.48
13497;BMP180;6820;49.374;8.452;2022-11-02T13:54:31;101261.91;;;23.46
13497;BMP180;6820;49.374;8.452;2022-11-02T13:59:02;101262.44;;;23.33
13497;BMP180;6820;49.374;8.452;2022-11-02T14:07:47;101266.81;;;23.02
13497;BMP180;6820;49.374;8.452;2022-11-02T14:11:50;101266.75;;;22.99
13497;BMP180;6820;49.374;8.452;2022-11-02T14:15:52;101269.31;;;22.98
13497;BMP180;6820;49.374;8.452;2022-11-02T14:19:54;101265.81;;;22.96
13497;BMP180;6820;49.374;8.452;2022-11-02T14:23:56;101266.66;;;22.95
13497;BMP180;6820;49.374;8.452;2022-11-02T14:33:05;101241.41;;;22.87
13497;BMP180;6820;49.374;8.452;2022-11-02T14:37:23;101257.72;;;22.84
13497;BMP180;6820;49.374;8.452;2022-11-02T14:41:57;101253.06;;;22.71
13497;BMP180;6820;49.374;8.452;2022-11-02T14:46:28;101250.13;;;22.60
13497;BMP180;6820;49.374;8.452;2022-11-02T14:50:33;101250.84;;;22.54
13497;BMP180;6820;49.374;8.452;2022-11-02T14:54:39;101244.69;;;22.49
13497;BMP180;6820;49.374;8.452;2022-11-02T14:58:53;101241.81;;;22.39
13497;BMP180;6820;49.374;8.452;2022-11-02T15:02:56;101244.94;;;22.28
13497;BMP180;6820;49.374;8.452;2022-11-02T15:07:00;101243.84;;;22.20
13497;BMP180;6820;49.374;8.452;2022-11-02T15:15:42;101239.97;;;22.06
13497;BMP180;6820;49.374;8.452;2022-11-02T15:20:19;101234.59;;;21.98
13497;BMP180;6820;49.374;8.452;2022-11-02T15:24:18;101233.56;;;21.94
13497;BMP180;6820;49.374;8.452;2022-11-02T15:28:27;101230.03;;;21.90
13497;BMP180;6820;49.374;8.452;2022-11-02T15:32:34;101231.56;;;21.84
13497;BMP180;6820;49.374;8.452;2022-11-02T15:36:40;101232.28;;;21.78
13497;BMP180;6820;49.374;8.452;2022-11-02T15:44:56;101224.13;;;21.65
13497;BMP180;6820;49.374;8.452;2022-11-02T15:58:19;101223.06;;;21.33
13497;BMP180;6820;49.374;8.452;2022-11-02T16:02:25;101223.59;;;21.23
13497;BMP180;6820;49.374;8.452;2022-11-02T16:06:35;101223.25;;;21.12
13497;BMP180;6820;49.374;8.452;2022-11-02T16:10:37;101224.69;;;21.03
13497;BMP180;6820;49.374;8.452;2022-11-02T16:14:39;101211.53;;;20.96
13497;BMP180;6820;49.374;8.452;2022-11-02T16:18:43;101215.41;;;20.83
13497;BMP180;6820;49.374;8.452;2022-11-02T16:26:50;101209.53;;;20.63
13497;BMP180;6820;49.374;8.452;2022-11-02T16:35:22;101214.84;;;20.44
13497;BMP180;6820;49.374;8.452;2022-11-02T16:39:28;101212.16;;;20.41
13497;BMP180;6820;49.374;8.452;2022-11-02T16:43:32;101209.34;;;20.34
13497;BMP180;6820;49.374;8.452;2022-11-02T16:47:38;101215.09;;;20.27
13497;BMP180;6820;49.374;8.452;2022-11-02T16:51:50;101215.66;;;20.18
13497;BMP180;6820;49.374;8.452;2022-11-02T16:55:52;101206.69;;;20.09
13497;BMP180;6820;49.374;8.452;2022-11-02T17:00:04;101209.03;;;20.02
13497;BMP180;6820;49.374;8.452;2022-11-02T17:04:14;101205.34;;;19.95
13497;BMP180;6820;49.374;8.452;2022-11-02T17:08:28;101193.97;;;19.89
13497;BMP180;6820;49.374;8.452;2022-11-02T17:12:36;101193.75;;;19.83
13497;BMP180;6820;49.374;8.452;2022-11-02T17:25:25;101201.69;;;19.67
13497;BMP180;6820;49.374;8.452;2022-11-02T17:29:28;101190.22;;;19.59
13497;BMP180;6820;49.374;8.452;2022-11-02T17:33:31;101196.13;;;19.57
13497;BMP180;6820;49.374;8.452;2022-11-02T17:37:33;101196.94;;;19.56
13497;BMP180;6820;49.374;8.452;2022-11-02T17:41:35;101195.00;;;19.51
13497;BMP180;6820;49.374;8.452;2022-11-02T17:45:57;101196.47;;;19.44
13497;BMP180;6820;49.374;8.452;2022-11-02T17:49:59;101196.28;;;19.40
13497;BMP180;6820;49.374;8.452;2022-11-02T17:54:00;101201.31;;;19.37
13497;BMP180;6820;49.374;8.452;2022-11-02T17:58:04;101200.25;;;19.32
13497;BMP180;6820;49.374;8.452;2022-11-02T18:02:11;101201.66;;;19.24
13497;BMP180;6820;49.374;8.452;2022-11-02T18:06:14;101203.41;;;19.25
13497;BMP180;6820;49.374;8.452;2022-11-02T18:10:16;101197.22;;;19.20
13497;BMP180;6820;49.374;8.452;2022-11-02T18:14:18;101195.47;;;19.19
13497;BMP180;6820;49.374;8.452;2022-11-02T18:18:19;101194.53;;;19.17
13497;BMP180;6820;49.374;8.452;2022-11-02T18:22:21;101192.66;;;19.13
13497;BMP180;6820;49.374;8.452;2022-11-02T18:26:23;101189.09;;;19.10
13497;BMP180;6820;49.374;8.452;2022-11-02T18:30:25;101173.44;;;19.04
13497;BMP180;6820;49.374;8.452;2022-11-02T18:34:27;101182.75;;;19.02
13497;BMP180;6820;49.374;8.452;2022-11-02T18:38:29;101174.06;;;18.98
13497;BMP180;6820;49.374;8.452;2022-11-02T18:42:33;101177.28;;;18.93
13497;BMP180;6820;49.374;8.452;2022-11-02T18:46:35;101170.44;;;18.93
13497;BMP180;6820;49.374;8.452;2022-11-02T18:50:37;101161.09;;;18.95
13497;BMP180;6820;49.374;8.452;2022-11-02T18:54:38;101169.56;;;18.93
13497;BMP180;6820;49.374;8.452;2022-11-02T18:58:40;101166.13;;;18.92
13497;BMP180;6820;49.374;8.452;2022-11-02T19:02:42;101161.63;;;18.89
13497;BMP180;6820;49.374;8.452;2022-11-02T19:06:43;101165.78;;;18.85
13497;BMP180;6820;49.374;8.452;2022-11-02T19:11:04;101161.94;;;18.76
13497;BMP180;6820;49.374;8.452;2022-11-02T19:15:06;101149.97;;;18.76
13497;BMP180;6820;49.374;8.452;2022-11-02T19:19:08;101154.38;;;18.79
13497;BMP180;6820;49.374;8.452;2022-11-02T19:23:09;101147.41;;;18.76
13497;BMP180;6820;49.374;8.452;2022-11-02T19:27:17;101145.63;;;18.74
13497;BMP180;6820;49.374;8.452;2022-11-02T19:31:19;101151.44;;;18.70
13497;BMP180;6820;49.374;8.452;2022-11-02T19:35:20;101154.75;;;18.67
13497;BMP180;6820;49.374;8.452;2022-11-02T19:39:22;101146.84;;;18.63
13497;BMP180;6820;49.374;8.452;2022-11-02T19:43:23;101143.25;;;18.58
13497;BMP180;6820;49.374;8.452;2022-11-02T19:47:26;101146.38;;;18.51
13497;BMP180;6820;49.374;8.452;2022-11-02T19:51:29;101147.88;;;18.46
13497;BMP180;6820;49.374;8.452;2022-11-02T19:55:31;101148.69;;;18.45
13497;BMP180;6820;49.374;8.452;2022-11-02T19:59:32;101137.47;;;18.43
13497;BMP180;6820;49.374;8.452;2022-11-02T20:03:34;101132.91;;;18.36
13497;BMP180;6820;49.374;8.452;2022-11-02T20:07:36;101131.78;;;18.30
13497;BMP180;6820;49.374;8.452;2022-11-02T20:11:38;101144.56;;;18.29
13497;BMP180;6820;49.374;8.452;2022-11-02T20:15:44;101134.97;;;18.25
13497;BMP180;6820;49.374;8.452;2022-11-02T20:19:46;101125.97;;;18.34
13497;BMP180;6820;49.374;8.452;2022-11-02T20:23:48;101121.47;;;18.29
13497;BMP180;6820;49.374;8.452;2022-11-02T20:27:51;101118.50;;;18.20
13497;BMP180;6820;49.374;8.452;2022-11-02T20:31:52;101120.81;;;18.14
13497;BMP180;6820;49.374;8.452;2022-11-02T20:35:54;101122.28;;;18.09
13497;BMP180;6820;49.374;8.452;2022-11-02T20:39:55;101117.25;;;18.10
13497;BMP180;6820;49.374;8.452;2022-11-02T20:43:57;101102.84;;;18.14
13497;BMP180;6820;49.374;8.452;2022-11-02T20:48:02;101107.28;;;18.18
13497;BMP180;6820;49.374;8.452;2022-11-02T20:52:04;101106.34;;;18.16
13497;BMP180;6820;49.374;8.452;2022-11-02T20:56:06;101094.41;;;18.16
13497;BMP180;6820;49.374;8.452;2022-11-02T21:00:09;101098.66;;;18.16
13497;BMP180;6820;49.374;8.452;2022-11-02T21:04:11;101101.22;;;18.16
13497;BMP180;6820;49.374;8.452;2022-11-02T21:08:20;101090.44;;;18.04
13497;BMP180;6820;49.374;8.452;2022-11-02T21:12:22;101091.72;;;17.95
13497;BMP180;6820;49.374;8.452;2022-11-02T21:16:42;101089.06;;;17.93
13497;BMP180;6820;49.374;8.452;2022-11-02T21:20:44;101095.06;;;17.94
13497;BMP180;6820;49.374;8.452;2022-11-02T21:24:45;101082.25;;;17.94
13497;BMP180;6820;49.374;8.452;2022-11-02T21:28:47;101074.38;;;17.89
13497;BMP180;6820;49.374;8.452;2022-11-02T21:32:49;101077.56;;;17.84
13497;BMP180;6820;49.374;8.452;2022-11-02T21:36:52;101074.19;;;17.85
13497;BMP180;6820;49.374;8.452;2022-11-02T21:40:57;101071.56;;;17.83
13497;BMP180;6820;49.374;8.452;2022-11-02T21:44:59;101071.63;;;17.85
13497;BMP180;6820;49.374;8.452;2022-11-02T21:49:01;101055.34;;;17.84
13497;BMP180;6820;49.374;8.452;2022-11-02T21:53:03;101066.56;;;17.86
13497;BMP180;6820;49.374;8.452;2022-11-02T21:57:05;101068.22;;;17.86
13497;BMP180;6820;49.374;8.452;2022-11-02T22:01:11;101068.19;;;17.84
13497;BMP180;6820;49.374;8.452;2022-11-02T22:05:32;101077.47;;;17.82
13497;BMP180;6820;49.374;8.452;2022-11-02T22:09:52;101080.06;;;17.82
13497;BMP180;6820;49.374;8.452;2022-11-02T22:13:56;101067.22;;;17.82
13497;BMP180;6820;49.374;8.452;2022-11-02T22:17:57;101072.09;;;17.76
13497;BMP180;6820;49.374;8.452;2022-11-02T22:21:59;101067.94;;;17.60
13497;BMP180;6820;49.374;8.452;2022-11-02T22:26:04;101056.00;;;17.60
13497;BMP180;6820;49.374;8.452;2022-11-02T22:30:06;101055.16;;;17.61
13497;BMP180;6820;49.374;8.452;2022-11-02T22:34:10;101053.66;;;17.65
13497;BMP180;6820;49.374;8.452;2022-11-02T22:38:12;101039.88;;;17.63
13497;BMP180;6820;49.374;8.452;2022-11-02T22:42:32;101036.38;;;17.61
13497;BMP180;6820;49.374;8.452;2022-11-02T22:46:46;101035.63;;;17.63
13497;BMP180;6820;49.374;8.452;2022-11-02T22:50:48;101039.00;;;17.62
13497;BMP180;6820;49.374;8.452;2022-11-02T22:54:50;101024.28;;;17.58
13497;BMP180;6820;49.374;8.452;2022-11-02T22:58:51;101021.69;;;17.57
13497;BMP180;6820;49.374;8.452;2022-11-02T23:02:53;101018.03;;;17.52
13497;BMP180;6820;49.374;8.452;2022-11-02T23:06:54;101015.22;;;17.46
13497;BMP180;6820;49.374;8.452;2022-11-02T23:10:57;101004.63;;;17.38
13497;BMP180;6820;49.374;8.452;2022-11-02T23:15:17;101007.81;;;17.33
13497;BMP180;6820;49.374;8.452;2022-11-02T23:19:20;101006.63;;;17.27
13497;BMP180;6820;49.374;8.452;2022-11-02T23:23:30;101011.50;;;17.21
13497;BMP180;6820;49.374;8.452;2022-11-02T23:27:57;101007.94;;;17.17
13497;BMP180;6820;49.374;8.452;2022-11-02T23:32:18;100995.56;;;17.09
13497;BMP180;6820;49.374;8.452;2022-11-02T23:36:28;101007.56;;;17.10
13497;BMP180;6820;49.374;8.452;2022-11-02T23:40:31;101011.22;;;17.15
13497;BMP180;6820;49.374;8.452;2022-11-02T23:44:32;101011.38;;;17.18
13497;BMP180;6820;49.374;8.452;2022-11-02T23:48:34;101010.50;;;17.17
13497;BMP180;6820;49.374;8.452;2022-11-02T23:52:36;101009.69;;;17.18
13497;BMP180;6820;49.374;8.452;2022-11-02T23:56:56;101002.59;;;17.13
